sensor_id;sensor_type;location;lat;lon;timestamp;temperature;humidity
35085;SHT85;21267;51.032;6.998;2024-02-15T00:02:26;11.18;99.99
35085;SHT85;21267;51.032;6.998;2024-02-15T00:04:53;11.15;99.99
35085;SHT85;21267;51.032;6.998;2024-02-15T00:07:23;11.18;99.99
35085;SHT85;21267;51.032;6.998;2024-02-15T00:09:50;11.19;99.99
35085;SHT85;21267;51.032;6.998;2024-02-15T00:12:17;11.21;99.99
35085;SHT85;21267;51.032;6.998;2024-02-15T00:14:43;11.21;99.99
35085;SHT85;21267;51.032;6.998;2024-02-15T00:17:10;11.21;99.99
35085;SHT85;21267;51.032;6.998;2024-02-15T00:19:39;11.22;99.99
35085;SHT85;21267;51.032;6.998;2024-02-15T00:22:09;11.18;99.99
35085;SHT85;21267;51.032;6.998;2024-02-15T00:24:37;11.18;99.99
35085;SHT85;21267;51.032;6.998;2024-02-15T00:27:05;11.19;99.99
35085;SHT85;21267;51.032;6.998;2024-02-15T00:29:32;11.27;99.99
35085;SHT85;21267;51.032;6.998;2024-02-15T00:32:01;11.22;99.99
35085;SHT85;21267;51.032;6.998;2024-02-15T00:34:31;11.24;99.99
35085;SHT85;21267;51.032;6.998;2024-02-15T00:36:58;11.24;99.99
35085;SHT85;21267;51.032;6.998;2024-02-15T00:39:25;11.22;99.99
35085;SHT85;21267;51.032;6.998;2024-02-15T00:41:52;11.21;99.99
35085;SHT85;21267;51.032;6.998;2024-02-15T00:44:19;11.22;99.99
35085;SHT85;21267;51.032;6.998;2024-02-15T00:46:46;11.25;99.99
35085;SHT85;21267;51.032;6.998;2024-02-15T00:49:15;11.24;99.99
35085;SHT85;21267;51.032;6.998;2024-02-15T00:51:42;11.22;99.99
35085;SHT85;21267;51.032;6.998;2024-02-15T00:54:09;11.24;99.99
35085;SHT85;21267;51.032;6.998;2024-02-15T00:56:35;11.25;99.99
35085;SHT85;21267;51.032;6.998;2024-02-15T01:01:38;11.24;99.89
35085;SHT85;21267;51.032;6.998;2024-02-15T01:04:05;11.29;99.88
35085;SHT85;21267;51.032;6.998;2024-02-15T01:06:32;11.31;99.84
35085;SHT85;21267;51.032;6.998;2024-02-15T01:09:00;11.28;99.83
35085;SHT85;21267;51.032;6.998;2024-02-15T01:11:30;11.32;99.80
35085;SHT85;21267;51.032;6.998;2024-02-15T01:14:01;11.32;99.74
35085;SHT85;21267;51.032;6.998;2024-02-15T01:16:29;11.31;99.65
35085;SHT85;21267;51.032;6.998;2024-02-15T01:18:55;11.34;99.60
35085;SHT85;21267;51.032;6.998;2024-02-15T01:21:22;11.31;99.51
35085;SHT85;21267;51.032;6.998;2024-02-15T01:23:49;11.28;99.54
35085;SHT85;21267;51.032;6.998;2024-02-15T01:26:17;11.29;99.62
35085;SHT85;21267;51.032;6.998;2024-02-15T01:28:44;11.29;99.69
35085;SHT85;21267;51.032;6.998;2024-02-15T01:31:11;11.25;99.70
35085;SHT85;21267;51.032;6.998;2024-02-15T01:33:39;11.29;99.75
35085;SHT85;21267;51.032;6.998;2024-02-15T01:36:06;11.24;99.73
35085;SHT85;21267;51.032;6.998;2024-02-15T01:38:33;11.25;99.74
35085;SHT85;21267;51.032;6.998;2024-02-15T01:41:00;11.27;99.76
35085;SHT85;21267;51.032;6.998;2024-02-15T01:43:27;11.27;99.69
35085;SHT85;21267;51.032;6.998;2024-02-15T01:45:55;11.24;99.60
35085;SHT85;21267;51.032;6.998;2024-02-15T01:48:23;11.25;99.53
35085;SHT85;21267;51.032;6.998;2024-02-15T01:50:51;11.28;99.45
35085;SHT85;21267;51.032;6.998;2024-02-15T01:53:18;11.28;99.29
35085;SHT85;21267;51.032;6.998;2024-02-15T01:55:46;11.31;99.14
35085;SHT85;21267;51.032;6.998;2024-02-15T01:58:13;11.28;99.01
35085;SHT85;21267;51.032;6.998;2024-02-15T02:00:40;11.31;98.93
35085;SHT85;21267;51.032;6.998;2024-02-15T02:03:08;11.32;98.88
35085;SHT85;21267;51.032;6.998;2024-02-15T02:05:37;11.34;98.79
35085;SHT85;21267;51.032;6.998;2024-02-15T02:08:05;11.34;98.72
35085;SHT85;21267;51.032;6.998;2024-02-15T02:10:39;11.35;98.76
35085;SHT85;21267;51.032;6.998;2024-02-15T02:13:06;11.34;98.76
35085;SHT85;21267;51.032;6.998;2024-02-15T02:15:33;11.31;98.66
35085;SHT85;21267;51.032;6.998;2024-02-15T02:18:01;11.32;98.63
35085;SHT85;21267;51.032;6.998;2024-02-15T02:20:29;11.34;98.58
35085;SHT85;21267;51.032;6.998;2024-02-15T02:23:03;11.35;98.54
35085;SHT85;21267;51.032;6.998;2024-02-15T02:25:34;11.34;98.47
35085;SHT85;21267;51.032;6.998;2024-02-15T02:28:01;11.31;98.56
35085;SHT85;21267;51.032;6.998;2024-02-15T02:30:28;11.31;98.61
35085;SHT85;21267;51.032;6.998;2024-02-15T02:32:59;11.34;98.51
35085;SHT85;21267;51.032;6.998;2024-02-15T02:35:26;11.31;98.48
35085;SHT85;21267;51.032;6.998;2024-02-15T02:37:54;11.34;98.59
35085;SHT85;21267;51.032;6.998;2024-02-15T02:40:22;11.32;98.58
35085;SHT85;21267;51.032;6.998;2024-02-15T02:42:54;11.29;98.61
35085;SHT85;21267;51.032;6.998;2024-02-15T02:45:26;11.31;98.61
35085;SHT85;21267;51.032;6.998;2024-02-15T02:47:54;11.27;98.63
35085;SHT85;21267;51.032;6.998;2024-02-15T02:50:21;11.27;98.58
35085;SHT85;21267;51.032;6.998;2024-02-15T02:52:52;11.29;98.63
35085;SHT85;21267;51.032;6.998;2024-02-15T02:55:19;11.28;98.67
35085;SHT85;21267;51.032;6.998;2024-02-15T02:57:47;11.25;98.67
35085;SHT85;21267;51.032;6.998;2024-02-15T03:00:15;11.28;98.76
35085;SHT85;21267;51.032;6.998;2024-02-15T03:02:44;11.28;98.66
35085;SHT85;21267;51.032;6.998;2024-02-15T03:05:11;11.29;98.52
35085;SHT85;21267;51.032;6.998;2024-02-15T03:07:40;11.31;98.53
35085;SHT85;21267;51.032;6.998;2024-02-15T03:10:08;11.35;98.40
35085;SHT85;21267;51.032;6.998;2024-02-15T03:12:37;11.34;98.17
35085;SHT85;21267;51.032;6.998;2024-02-15T03:15:05;11.34;98.25
35085;SHT85;21267;51.032;6.998;2024-02-15T03:17:40;11.34;98.18
35085;SHT85;21267;51.032;6.998;2024-02-15T03:20:11;11.34;98.12
35085;SHT85;21267;51.032;6.998;2024-02-15T03:22:54;11.35;98.04
35085;SHT85;21267;51.032;6.998;2024-02-15T03:25:22;11.35;97.92
35085;SHT85;21267;51.032;6.998;2024-02-15T03:27:54;11.36;97.94
35085;SHT85;21267;51.032;6.998;2024-02-15T03:30:24;11.38;97.94
35085;SHT85;21267;51.032;6.998;2024-02-15T03:32:53;11.35;97.85
35085;SHT85;21267;51.032;6.998;2024-02-15T03:35:22;11.32;98.00
35085;SHT85;21267;51.032;6.998;2024-02-15T03:37:50;11.32;98.01
35085;SHT85;21267;51.032;6.998;2024-02-15T03:40:18;11.32;98.03
35085;SHT85;21267;51.032;6.998;2024-02-15T03:42:46;11.35;97.88
35085;SHT85;21267;51.032;6.998;2024-02-15T03:45:19;11.35;97.86
35085;SHT85;21267;51.032;6.998;2024-02-15T03:47:47;11.36;97.90
35085;SHT85;21267;51.032;6.998;2024-02-15T03:50:14;11.29;97.95
35085;SHT85;21267;51.032;6.998;2024-02-15T03:52:41;11.34;98.01
35085;SHT85;21267;51.032;6.998;2024-02-15T03:55:08;11.36;97.93
35085;SHT85;21267;51.032;6.998;2024-02-15T03:57:38;11.34;97.88
35085;SHT85;21267;51.032;6.998;2024-02-15T04:00:08;11.35;97.87
35085;SHT85;21267;51.032;6.998;2024-02-15T04:02:38;11.35;97.80
35085;SHT85;21267;51.032;6.998;2024-02-15T04:05:09;11.39;97.66
35085;SHT85;21267;51.032;6.998;2024-02-15T04:07:37;11.41;97.61
35085;SHT85;21267;51.032;6.998;2024-02-15T04:10:04;11.39;97.57
35085;SHT85;21267;51.032;6.998;2024-02-15T04:12:32;11.38;97.52
35085;SHT85;21267;51.032;6.998;2024-02-15T04:14:59;11.42;97.43
35085;SHT85;21267;51.032;6.998;2024-02-15T04:17:40;11.42;97.38
35085;SHT85;21267;51.032;6.998;2024-02-15T04:20:09;11.43;97.30
35085;SHT85;21267;51.032;6.998;2024-02-15T04:22:36;11.45;97.42
35085;SHT85;21267;51.032;6.998;2024-02-15T04:25:07;11.42;97.43
35085;SHT85;21267;51.032;6.998;2024-02-15T04:27:38;11.42;97.44
35085;SHT85;21267;51.032;6.998;2024-02-15T04:30:06;11.43;97.42
35085;SHT85;21267;51.032;6.998;2024-02-15T04:32:35;11.42;97.37
35085;SHT85;21267;51.032;6.998;2024-02-15T04:35:04;11.45;97.33
35085;SHT85;21267;51.032;6.998;2024-02-15T04:37:35;11.43;97.32
35085;SHT85;21267;51.032;6.998;2024-02-15T04:40:05;11.43;97.39
35085;SHT85;21267;51.032;6.998;2024-02-15T04:42:38;11.46;97.32
35085;SHT85;21267;51.032;6.998;2024-02-15T04:45:08;11.45;97.32
35085;SHT85;21267;51.032;6.998;2024-02-15T04:47:37;11.45;97.26
35085;SHT85;21267;51.032;6.998;2024-02-15T04:50:05;11.49;97.28
35085;SHT85;21267;51.032;6.998;2024-02-15T04:52:33;11.48;97.31
35085;SHT85;21267;51.032;6.998;2024-02-15T04:55:00;11.45;97.21
35085;SHT85;21267;51.032;6.998;2024-02-15T04:57:27;11.48;97.28
35085;SHT85;21267;51.032;6.998;2024-02-15T04:59:57;11.52;97.16
35085;SHT85;21267;51.032;6.998;2024-02-15T05:02:26;11.55;96.89
35085;SHT85;21267;51.032;6.998;2024-02-15T05:04:53;11.53;96.85
35085;SHT85;21267;51.032;6.998;2024-02-15T05:07:23;11.56;96.96
35085;SHT85;21267;51.032;6.998;2024-02-15T05:09:50;11.58;96.75
35085;SHT85;21267;51.032;6.998;2024-02-15T05:12:24;11.59;96.67
35085;SHT85;21267;51.032;6.998;2024-02-15T05:14:51;11.62;96.61
35085;SHT85;21267;51.032;6.998;2024-02-15T05:17:20;11.59;96.65
35085;SHT85;21267;51.032;6.998;2024-02-15T05:19:49;11.63;96.69
35085;SHT85;21267;51.032;6.998;2024-02-15T05:22:17;11.62;96.42
35085;SHT85;21267;51.032;6.998;2024-02-15T05:24:45;11.67;96.28
35085;SHT85;21267;51.032;6.998;2024-02-15T05:27:12;11.69;96.14
35085;SHT85;21267;51.032;6.998;2024-02-15T05:29:39;11.67;96.14
35085;SHT85;21267;51.032;6.998;2024-02-15T05:32:10;11.70;96.04
35085;SHT85;21267;51.032;6.998;2024-02-15T05:34:37;11.70;96.07
35085;SHT85;21267;51.032;6.998;2024-02-15T05:37:07;11.70;96.06
35085;SHT85;21267;51.032;6.998;2024-02-15T05:39:34;11.75;96.00
35085;SHT85;21267;51.032;6.998;2024-02-15T05:42:01;11.73;96.00
35085;SHT85;21267;51.032;6.998;2024-02-15T05:44:28;11.73;95.91
35085;SHT85;21267;51.032;6.998;2024-02-15T05:46:55;11.71;95.95
35085;SHT85;21267;51.032;6.998;2024-02-15T05:49:23;11.71;95.91
35085;SHT85;21267;51.032;6.998;2024-02-15T05:51:51;11.73;96.09
35085;SHT85;21267;51.032;6.998;2024-02-15T05:54:20;11.70;96.08
35085;SHT85;21267;51.032;6.998;2024-02-15T05:56:49;11.58;96.47
35085;SHT85;21267;51.032;6.998;2024-02-15T05:59:19;11.59;96.56
35085;SHT85;21267;51.032;6.998;2024-02-15T06:01:47;11.56;96.77
35085;SHT85;21267;51.032;6.998;2024-02-15T06:04:18;11.59;96.78
35085;SHT85;21267;51.032;6.998;2024-02-15T06:06:45;11.55;96.88
35085;SHT85;21267;51.032;6.998;2024-02-15T06:09:16;11.59;96.85
35085;SHT85;21267;51.032;6.998;2024-02-15T06:11:44;11.58;96.89
35085;SHT85;21267;51.032;6.998;2024-02-15T06:14:12;11.58;96.96
35085;SHT85;21267;51.032;6.998;2024-02-15T06:16:44;11.53;97.15
35085;SHT85;21267;51.032;6.998;2024-02-15T06:19:11;11.52;97.15
35085;SHT85;21267;51.032;6.998;2024-02-15T06:21:38;11.55;97.15
35085;SHT85;21267;51.032;6.998;2024-02-15T06:24:05;11.58;97.06
35085;SHT85;21267;51.032;6.998;2024-02-15T06:26:32;11.56;96.95
35085;SHT85;21267;51.032;6.998;2024-02-15T06:29:00;11.58;96.96
35085;SHT85;21267;51.032;6.998;2024-02-15T06:31:46;11.65;96.73
35085;SHT85;21267;51.032;6.998;2024-02-15T06:34:31;11.62;96.57
35085;SHT85;21267;51.032;6.998;2024-02-15T06:37:36;11.69;96.31
35085;SHT85;21267;51.032;6.998;2024-02-15T06:40:22;11.65;96.18
35085;SHT85;21267;51.032;6.998;2024-02-15T06:42:50;11.67;96.20
35085;SHT85;21267;51.032;6.998;2024-02-15T06:45:16;11.73;96.12
35085;SHT85;21267;51.032;6.998;2024-02-15T06:47:44;11.69;96.00
35085;SHT85;21267;51.032;6.998;2024-02-15T06:50:12;11.73;95.99
35085;SHT85;21267;51.032;6.998;2024-02-15T06:52:43;11.73;95.89
35085;SHT85;21267;51.032;6.998;2024-02-15T06:55:10;11.70;96.07
35085;SHT85;21267;51.032;6.998;2024-02-15T06:57:39;11.71;96.29
35085;SHT85;21267;51.032;6.998;2024-02-15T07:00:10;11.73;96.11
35085;SHT85;21267;51.032;6.998;2024-02-15T07:02:42;11.71;96.15
35085;SHT85;21267;51.032;6.998;2024-02-15T07:05:11;11.75;96.00
35085;SHT85;21267;51.032;6.998;2024-02-15T07:07:38;11.76;95.84
35085;SHT85;21267;51.032;6.998;2024-02-15T07:10:06;11.79;95.72
35085;SHT85;21267;51.032;6.998;2024-02-15T07:12:33;11.78;95.75
35085;SHT85;21267;51.032;6.998;2024-02-15T07:15:00;11.78;95.85
35085;SHT85;21267;51.032;6.998;2024-02-15T07:17:28;11.75;95.93
35085;SHT85;21267;51.032;6.998;2024-02-15T07:19:59;11.75;95.98
35085;SHT85;21267;51.032;6.998;2024-02-15T07:22:32;11.75;96.12
35085;SHT85;21267;51.032;6.998;2024-02-15T07:25:05;11.70;96.17
35085;SHT85;21267;51.032;6.998;2024-02-15T07:27:32;11.71;96.36
35085;SHT85;21267;51.032;6.998;2024-02-15T07:33:38;11.73;96.28
35085;SHT85;21267;51.032;6.998;2024-02-15T07:36:19;11.79;95.96
35085;SHT85;21267;51.032;6.998;2024-02-15T07:39:01;11.78;95.93
35085;SHT85;21267;51.032;6.998;2024-02-15T07:41:43;11.78;96.03
35085;SHT85;21267;51.032;6.998;2024-02-15T07:44:10;11.79;96.06
35085;SHT85;21267;51.032;6.998;2024-02-15T07:46:51;11.79;96.34
35085;SHT85;21267;51.032;6.998;2024-02-15T07:49:18;11.73;96.23
35085;SHT85;21267;51.032;6.998;2024-02-15T07:51:45;11.73;96.44
35085;SHT85;21267;51.032;6.998;2024-02-15T07:54:19;11.73;96.45
35085;SHT85;21267;51.032;6.998;2024-02-15T07:56:49;11.67;96.71
35085;SHT85;21267;51.032;6.998;2024-02-15T07:59:16;11.76;96.56
35085;SHT85;21267;51.032;6.998;2024-02-15T08:01:43;11.73;96.70
35085;SHT85;21267;51.032;6.998;2024-02-15T08:04:13;11.75;96.79
35085;SHT85;21267;51.032;6.998;2024-02-15T08:06:43;11.71;96.88
35085;SHT85;21267;51.032;6.998;2024-02-15T08:09:10;11.73;96.99
35085;SHT85;21267;51.032;6.998;2024-02-15T08:11:40;11.71;97.00
35085;SHT85;21267;51.032;6.998;2024-02-15T08:14:07;11.69;97.24
35085;SHT85;21267;51.032;6.998;2024-02-15T08:16:40;11.70;97.19
35085;SHT85;21267;51.032;6.998;2024-02-15T08:19:08;11.70;97.26
35085;SHT85;21267;51.032;6.998;2024-02-15T08:21:38;11.70;97.22
35085;SHT85;21267;51.032;6.998;2024-02-15T08:24:09;11.69;97.19
35085;SHT85;21267;51.032;6.998;2024-02-15T08:26:36;11.63;97.56
35085;SHT85;21267;51.032;6.998;2024-02-15T08:29:07;11.63;97.78
35085;SHT85;21267;51.032;6.998;2024-02-15T08:31:35;11.62;97.96
35085;SHT85;21267;51.032;6.998;2024-02-15T08:34:02;11.60;98.03
35085;SHT85;21267;51.032;6.998;2024-02-15T08:36:29;11.62;98.08
35085;SHT85;21267;51.032;6.998;2024-02-15T08:38:57;11.60;98.23
35085;SHT85;21267;51.032;6.998;2024-02-15T08:41:24;11.56;98.34
35085;SHT85;21267;51.032;6.998;2024-02-15T08:43:53;11.59;98.26
35085;SHT85;21267;51.032;6.998;2024-02-15T08:46:20;11.59;98.24
35085;SHT85;21267;51.032;6.998;2024-02-15T08:48:47;11.58;98.21
35085;SHT85;21267;51.032;6.998;2024-02-15T08:51:15;11.60;98.40
35085;SHT85;21267;51.032;6.998;2024-02-15T08:53:44;11.63;98.17
35085;SHT85;21267;51.032;6.998;2024-02-15T08:56:11;11.62;98.19
35085;SHT85;21267;51.032;6.998;2024-02-15T08:58:41;11.67;98.11
35085;SHT85;21267;51.032;6.998;2024-02-15T09:01:09;11.69;98.12
35085;SHT85;21267;51.032;6.998;2024-02-15T09:03:35;11.71;98.02
35085;SHT85;21267;51.032;6.998;2024-02-15T09:06:03;11.76;97.88
35085;SHT85;21267;51.032;6.998;2024-02-15T09:08:31;11.85;97.73
35085;SHT85;21267;51.032;6.998;2024-02-15T09:10:59;11.83;97.79
35085;SHT85;21267;51.032;6.998;2024-02-15T09:13:26;11.89;97.42
35085;SHT85;21267;51.032;6.998;2024-02-15T09:15:53;11.93;97.30
35085;SHT85;21267;51.032;6.998;2024-02-15T09:18:21;11.97;97.20
35085;SHT85;21267;51.032;6.998;2024-02-15T09:20:51;12.06;97.07
35085;SHT85;21267;51.032;6.998;2024-02-15T09:23:22;12.08;96.54
35085;SHT85;21267;51.032;6.998;2024-02-15T09:25:50;12.13;96.71
35085;SHT85;21267;51.032;6.998;2024-02-15T09:28:18;12.17;96.61
35085;SHT85;21267;51.032;6.998;2024-02-15T09:30:51;12.20;96.49
35085;SHT85;21267;51.032;6.998;2024-02-15T09:33:21;12.21;96.50
35085;SHT85;21267;51.032;6.998;2024-02-15T09:35:51;12.22;96.34
35085;SHT85;21267;51.032;6.998;2024-02-15T09:38:22;12.27;96.02
35085;SHT85;21267;51.032;6.998;2024-02-15T09:40:51;12.32;96.18
35085;SHT85;21267;51.032;6.998;2024-02-15T09:43:18;12.32;96.02
35085;SHT85;21267;51.032;6.998;2024-02-15T09:45:47;12.35;96.03
35085;SHT85;21267;51.032;6.998;2024-02-15T09:48:15;12.39;96.05
35085;SHT85;21267;51.032;6.998;2024-02-15T09:50:45;12.44;95.55
35085;SHT85;21267;51.032;6.998;2024-02-15T09:53:15;12.52;95.20
35085;SHT85;21267;51.032;6.998;2024-02-15T09:55:44;12.57;95.08
35085;SHT85;21267;51.032;6.998;2024-02-15T09:58:11;12.71;95.06
35085;SHT85;21267;51.032;6.998;2024-02-15T10:00:39;12.75;94.43
35085;SHT85;21267;51.032;6.998;2024-02-15T10:03:06;12.86;94.54
35085;SHT85;21267;51.032;6.998;2024-02-15T10:05:36;12.93;94.28
35085;SHT85;21267;51.032;6.998;2024-02-15T10:08:04;12.93;93.84
35085;SHT85;21267;51.032;6.998;2024-02-15T10:10:31;12.99;93.62
35085;SHT85;21267;51.032;6.998;2024-02-15T10:13:00;13.03;93.51
35085;SHT85;21267;51.032;6.998;2024-02-15T10:15:36;13.03;93.23
35085;SHT85;21267;51.032;6.998;2024-02-15T10:18:11;13.03;93.31
35085;SHT85;21267;51.032;6.998;2024-02-15T10:20:40;13.00;93.09
35085;SHT85;21267;51.032;6.998;2024-02-15T10:23:13;13.03;92.81
35085;SHT85;21267;51.032;6.998;2024-02-15T10:25:45;13.12;92.87
35085;SHT85;21267;51.032;6.998;2024-02-15T10:28:12;13.13;92.51
35085;SHT85;21267;51.032;6.998;2024-02-15T10:30:43;13.19;92.82
35085;SHT85;21267;51.032;6.998;2024-02-15T10:33:20;13.24;92.78
35085;SHT85;21267;51.032;6.998;2024-02-15T10:35:48;13.30;92.30
35085;SHT85;21267;51.032;6.998;2024-02-15T10:38:15;13.36;92.26
35085;SHT85;21267;51.032;6.998;2024-02-15T10:40:46;13.47;92.07
35085;SHT85;21267;51.032;6.998;2024-02-15T10:43:15;13.48;91.57
35085;SHT85;21267;51.032;6.998;2024-02-15T10:45:44;13.59;91.65
35085;SHT85;21267;51.032;6.998;2024-02-15T10:48:11;13.59;90.90
35085;SHT85;21267;51.032;6.998;2024-02-15T10:50:40;13.57;90.54
35085;SHT85;21267;51.032;6.998;2024-02-15T10:53:28;13.64;90.52
35085;SHT85;21267;51.032;6.998;2024-02-15T10:58:33;13.81;90.37
35085;SHT85;21267;51.032;6.998;2024-02-15T11:01:06;13.85;90.26
35085;SHT85;21267;51.032;6.998;2024-02-15T11:03:36;13.95;90.25
35085;SHT85;21267;51.032;6.998;2024-02-15T11:06:09;14.01;89.73
35085;SHT85;21267;51.032;6.998;2024-02-15T11:08:38;14.06;89.59
35085;SHT85;21267;51.032;6.998;2024-02-15T11:11:05;14.19;89.44
35085;SHT85;21267;51.032;6.998;2024-02-15T11:13:33;14.26;88.70
35085;SHT85;21267;51.032;6.998;2024-02-15T11:16:00;14.44;88.32
35085;SHT85;21267;51.032;6.998;2024-02-15T11:18:42;14.59;87.96
35085;SHT85;21267;51.032;6.998;2024-02-15T11:21:12;14.85;87.30
35085;SHT85;21267;51.032;6.998;2024-02-15T11:23:39;15.15;87.20
35085;SHT85;21267;51.032;6.998;2024-02-15T11:26:16;15.39;86.46
35085;SHT85;21267;51.032;6.998;2024-02-15T11:28:55;15.53;84.95
35085;SHT85;21267;51.032;6.998;2024-02-15T11:31:54;15.50;84.87
35085;SHT85;21267;51.032;6.998;2024-02-15T11:34:43;15.62;84.61
35085;SHT85;21267;51.032;6.998;2024-02-15T11:40:28;15.38;84.18
35085;SHT85;21267;51.032;6.998;2024-02-15T11:42:58;15.35;84.49
35085;SHT85;21267;51.032;6.998;2024-02-15T11:45:28;15.33;84.65
35085;SHT85;21267;51.032;6.998;2024-02-15T11:48:10;15.45;84.36
35085;SHT85;21267;51.032;6.998;2024-02-15T11:50:39;15.59;84.54
35085;SHT85;21267;51.032;6.998;2024-02-15T11:53:07;15.50;84.35
35085;SHT85;21267;51.032;6.998;2024-02-15T11:55:39;15.40;83.52
35085;SHT85;21267;51.032;6.998;2024-02-15T11:58:09;15.42;83.50
35085;SHT85;21267;51.032;6.998;2024-02-15T12:00:38;15.54;83.91
35085;SHT85;21267;51.032;6.998;2024-02-15T12:03:24;15.56;82.95
35085;SHT85;21267;51.032;6.998;2024-02-15T12:06:27;15.47;83.38
35085;SHT85;21267;51.032;6.998;2024-02-15T12:09:18;15.47;83.18
35085;SHT85;21267;51.032;6.998;2024-02-15T12:12:05;15.50;83.51
35085;SHT85;21267;51.032;6.998;2024-02-15T12:14:58;15.60;83.64
35085;SHT85;21267;51.032;6.998;2024-02-15T12:17:45;15.62;82.44
35085;SHT85;21267;51.032;6.998;2024-02-15T12:20:32;15.57;82.26
35085;SHT85;21267;51.032;6.998;2024-02-15T12:23:01;15.62;82.14
35085;SHT85;21267;51.032;6.998;2024-02-15T12:25:28;15.69;82.35
35085;SHT85;21267;51.032;6.998;2024-02-15T12:27:58;15.73;82.17
35085;SHT85;21267;51.032;6.998;2024-02-15T12:30:32;15.80;81.53
35085;SHT85;21267;51.032;6.998;2024-02-15T12:33:09;15.81;81.71
35085;SHT85;21267;51.032;6.998;2024-02-15T12:35:38;15.81;80.94
35085;SHT85;21267;51.032;6.998;2024-02-15T12:38:05;15.86;81.14
35085;SHT85;21267;51.032;6.998;2024-02-15T12:40:36;15.94;80.90
35085;SHT85;21267;51.032;6.998;2024-02-15T12:43:09;15.96;80.43
35085;SHT85;21267;51.032;6.998;2024-02-15T12:45:40;15.98;80.41
35085;SHT85;21267;51.032;6.998;2024-02-15T12:48:08;16.08;80.30
35085;SHT85;21267;51.032;6.998;2024-02-15T12:50:38;16.18;80.11
35085;SHT85;21267;51.032;6.998;2024-02-15T12:53:07;16.22;80.01
35085;SHT85;21267;51.032;6.998;2024-02-15T12:55:35;16.25;78.93
35085;SHT85;21267;51.032;6.998;2024-02-15T12:58:04;16.26;78.80
35085;SHT85;21267;51.032;6.998;2024-02-15T13:00:33;16.29;79.11
35085;SHT85;21267;51.032;6.998;2024-02-15T13:03:01;16.32;79.22
35085;SHT85;21267;51.032;6.998;2024-02-15T13:05:31;16.25;78.92
35085;SHT85;21267;51.032;6.998;2024-02-15T13:08:00;16.22;78.92
35085;SHT85;21267;51.032;6.998;2024-02-15T13:10:37;16.21;78.98
35085;SHT85;21267;51.032;6.998;2024-02-15T13:13:06;16.39;78.84
35085;SHT85;21267;51.032;6.998;2024-02-15T13:15:35;16.41;78.79
35085;SHT85;21267;51.032;6.998;2024-02-15T13:18:04;16.48;78.55
35085;SHT85;21267;51.032;6.998;2024-02-15T13:20:34;16.41;78.35
35085;SHT85;21267;51.032;6.998;2024-02-15T13:25:36;16.26;78.41
35085;SHT85;21267;51.032;6.998;2024-02-15T13:28:04;16.24;78.75
35085;SHT85;21267;51.032;6.998;2024-02-15T13:30:32;16.25;78.88
35085;SHT85;21267;51.032;6.998;2024-02-15T13:32:59;16.25;78.74
35085;SHT85;21267;51.032;6.998;2024-02-15T13:35:26;16.25;78.85
35085;SHT85;21267;51.032;6.998;2024-02-15T13:37:56;16.25;78.83
35085;SHT85;21267;51.032;6.998;2024-02-15T13:40:25;16.20;78.60
35085;SHT85;21267;51.032;6.998;2024-02-15T13:42:56;16.25;78.84
35085;SHT85;21267;51.032;6.998;2024-02-15T13:45:41;16.17;78.27
35085;SHT85;21267;51.032;6.998;2024-02-15T13:48:09;16.26;78.29
35085;SHT85;21267;51.032;6.998;2024-02-15T13:50:40;16.55;77.95
35085;SHT85;21267;51.032;6.998;2024-02-15T13:53:07;16.79;77.28
35085;SHT85;21267;51.032;6.998;2024-02-15T13:55:37;17.08;76.62
35085;SHT85;21267;51.032;6.998;2024-02-15T13:58:03;16.99;76.03
35085;SHT85;21267;51.032;6.998;2024-02-15T14:00:30;16.89;75.92
35085;SHT85;21267;51.032;6.998;2024-02-15T14:03:02;17.00;75.86
35085;SHT85;21267;51.032;6.998;2024-02-15T14:05:30;17.11;76.22
35085;SHT85;21267;51.032;6.998;2024-02-15T14:07:59;17.15;75.44
35085;SHT85;21267;51.032;6.998;2024-02-15T14:10:29;16.97;75.61
35085;SHT85;21267;51.032;6.998;2024-02-15T14:12:57;16.75;75.58
35085;SHT85;21267;51.032;6.998;2024-02-15T14:15:30;16.76;76.23
35085;SHT85;21267;51.032;6.998;2024-02-15T14:18:00;16.62;76.09
35085;SHT85;21267;51.032;6.998;2024-02-15T14:20:28;16.63;75.95
35085;SHT85;21267;51.032;6.998;2024-02-15T14:22:54;16.56;76.13
35085;SHT85;21267;51.032;6.998;2024-02-15T14:25:25;16.61;75.83
35085;SHT85;21267;51.032;6.998;2024-02-15T14:27:55;16.59;75.92
35085;SHT85;21267;51.032;6.998;2024-02-15T14:30:26;16.58;76.03
35085;SHT85;21267;51.032;6.998;2024-02-15T14:33:13;16.76;75.76
35085;SHT85;21267;51.032;6.998;2024-02-15T14:35:49;17.20;74.67
35085;SHT85;21267;51.032;6.998;2024-02-15T14:38:17;17.10;74.37
35085;SHT85;21267;51.032;6.998;2024-02-15T14:40:48;16.96;74.33
35085;SHT85;21267;51.032;6.998;2024-02-15T14:43:24;16.82;74.80
35085;SHT85;21267;51.032;6.998;2024-02-15T14:45:54;16.84;75.43
35085;SHT85;21267;51.032;6.998;2024-02-15T14:48:24;16.86;75.12
35085;SHT85;21267;51.032;6.998;2024-02-15T14:50:52;16.73;75.31
35085;SHT85;21267;51.032;6.998;2024-02-15T14:53:20;16.79;75.33
35085;SHT85;21267;51.032;6.998;2024-02-15T14:55:47;16.69;75.39
35085;SHT85;21267;51.032;6.998;2024-02-15T14:58:14;16.69;75.47
35085;SHT85;21267;51.032;6.998;2024-02-15T15:00:45;16.61;75.43
35085;SHT85;21267;51.032;6.998;2024-02-15T15:03:14;16.59;75.84
35085;SHT85;21267;51.032;6.998;2024-02-15T15:05:42;16.49;75.78
35085;SHT85;21267;51.032;6.998;2024-02-15T15:08:28;16.45;75.65
35085;SHT85;21267;51.032;6.998;2024-02-15T15:11:15;16.45;75.87
35085;SHT85;21267;51.032;6.998;2024-02-15T15:14:00;16.42;75.96
35085;SHT85;21267;51.032;6.998;2024-02-15T15:16:33;16.39;75.73
35085;SHT85;21267;51.032;6.998;2024-02-15T15:19:01;16.31;75.58
35085;SHT85;21267;51.032;6.998;2024-02-15T15:21:29;16.29;75.81
35085;SHT85;21267;51.032;6.998;2024-02-15T15:23:57;16.26;75.99
35085;SHT85;21267;51.032;6.998;2024-02-15T15:26:25;16.22;76.12
35085;SHT85;21267;51.032;6.998;2024-02-15T15:28:55;16.18;76.29
35085;SHT85;21267;51.032;6.998;2024-02-15T15:31:23;16.10;76.66
35085;SHT85;21267;51.032;6.998;2024-02-15T15:33:50;16.11;76.52
35085;SHT85;21267;51.032;6.998;2024-02-15T15:36:19;16.10;76.19
35085;SHT85;21267;51.032;6.998;2024-02-15T15:38:48;16.04;76.75
35085;SHT85;21267;51.032;6.998;2024-02-15T15:41:17;15.96;76.59
35085;SHT85;21267;51.032;6.998;2024-02-15T15:43:43;16.00;76.38
35085;SHT85;21267;51.032;6.998;2024-02-15T15:46:15;15.90;76.39
35085;SHT85;21267;51.032;6.998;2024-02-15T15:48:42;15.93;75.91
35085;SHT85;21267;51.032;6.998;2024-02-15T15:51:10;15.93;75.92
35085;SHT85;21267;51.032;6.998;2024-02-15T15:53:37;15.84;76.38
35085;SHT85;21267;51.032;6.998;2024-02-15T15:56:06;15.89;76.04
35085;SHT85;21267;51.032;6.998;2024-02-15T15:58:34;15.83;76.12
35085;SHT85;21267;51.032;6.998;2024-02-15T16:01:02;15.81;76.32
35085;SHT85;21267;51.032;6.998;2024-02-15T16:03:30;15.91;75.69